KBLH/BLH METAR and TAF weather

Enter ICAO airport designator
Station Type Date Time Source
KBLH METAR 2019/04/18 19:52 UTC NOAA

KBLH 181952Z AUTO 10007KT 10SM CLR 31/03 A3005 RMK AO2 SLP172 T03110028


Station Type Date Time Source
KBLH Decoded METAR 2019/04/18 19:52 UTC NOAA

BLYTHE AIRPORT, CA, United States (KBLH) 33-37N 114-43W 119M
Apr 18, 2019 - 03:52 PM EDT / 2019.04.18 1952 UTC
Wind: from the E (100 degrees) at 8 MPH (7 KT):0
Visibility: 10 mile(s):0
Sky conditions: clear
Temperature: 88.0 F (31.1 C)
Dew Point: 37.0 F (2.8 C)
Relative Humidity: 16%
Pressure (altimeter): 30.05 in. Hg (1017 hPa)
ob: KBLH 181952Z AUTO 10007KT 10SM CLR 31/03 A3005 RMK AO2 SLP172 T03110028
cycle: 20

Station Type Date Time Source
KBLH TAF 2019/04/18 18:22 UTC NOAA

TAF KBLH 181720Z 1818/1918 06006KT P6SM FEW250
FM182200 13006KT P6SM FEW250
FM190300 23006KT P6SM FEW250
FM191000 01004KT P6SM SKC

Example: see airport list